createdAt,value
2018-08-17T00:02:06.315Z,4.40
2018-08-17T00:04:34.009Z,4.70
2018-08-17T00:07:01.851Z,3.83
2018-08-17T00:09:29.454Z,4.40
2018-08-17T00:11:57.059Z,4.50
2018-08-17T00:14:24.669Z,4.73
2018-08-17T00:16:52.325Z,4.70
2018-08-17T00:19:19.888Z,5.10
2018-08-17T00:21:47.532Z,4.13
2018-08-17T00:24:15.129Z,4.30
2018-08-17T00:26:42.725Z,3.97
2018-08-17T00:29:10.342Z,4.37
2018-08-17T00:31:37.936Z,4.70
2018-08-17T00:34:05.856Z,4.93
2018-08-17T00:36:33.445Z,4.67
2018-08-17T00:39:01.281Z,5.37
2018-08-17T00:41:28.909Z,5.60
2018-08-17T00:43:56.529Z,4.70
2018-08-17T00:46:24.122Z,4.07
2018-08-17T00:48:51.757Z,4.03
2018-08-17T00:51:19.413Z,4.97
2018-08-17T00:53:47.032Z,4.57
2018-08-17T00:56:14.671Z,4.77
2018-08-17T00:58:42.312Z,4.30
2018-08-17T01:01:10.079Z,5.23
2018-08-17T01:03:37.960Z,4.17
2018-08-17T01:06:05.652Z,3.87
2018-08-17T01:08:33.274Z,4.60
2018-08-17T01:11:00.920Z,4.40
2018-08-17T01:13:28.512Z,4.67
2018-08-17T01:15:56.152Z,5.17
2018-08-17T01:18:23.797Z,4.70
2018-08-17T01:20:51.424Z,4.80
2018-08-17T01:23:19.017Z,5.13
2018-08-17T01:25:46.604Z,4.70
2018-08-17T01:28:14.229Z,4.57
2018-08-17T01:30:41.898Z,5.60
2018-08-17T01:33:09.666Z,5.40
2018-08-17T01:35:37.250Z,5.83
2018-08-17T01:38:04.844Z,5.80
2018-08-17T01:40:32.467Z,4.87
2018-08-17T01:43:00.061Z,5.00
2018-08-17T01:45:27.664Z,5.77
2018-08-17T01:47:55.262Z,4.37
2018-08-17T01:50:22.839Z,5.70
2018-08-17T01:52:50.473Z,5.93
2018-08-17T01:55:18.041Z,4.37
2018-08-17T01:57:45.621Z,4.53
2018-08-17T02:00:13.289Z,5.50
2018-08-17T02:02:43.831Z,5.53
2018-08-17T02:05:11.575Z,4.40
2018-08-17T02:07:39.228Z,5.47
2018-08-17T02:10:09.105Z,5.47
2018-08-17T02:12:37.155Z,4.90
2018-08-17T02:15:05.204Z,4.10
2018-08-17T02:17:32.825Z,5.47
2018-08-17T02:20:00.527Z,4.80
2018-08-17T02:22:28.156Z,5.00
2018-08-17T02:24:55.746Z,5.70
2018-08-17T02:27:23.406Z,5.50
2018-08-17T02:29:51.327Z,5.20
2018-08-17T02:32:18.926Z,4.53
2018-08-17T02:34:46.531Z,5.40
2018-08-17T02:37:14.147Z,5.47
2018-08-17T02:39:41.742Z,4.13
2018-08-17T02:42:09.429Z,5.20
2018-08-17T02:44:37.087Z,4.87
2018-08-17T02:47:04.797Z,5.27
2018-08-17T02:49:32.398Z,5.20
2018-08-17T02:52:00.172Z,4.93
2018-08-17T02:54:27.762Z,5.70
2018-08-17T02:56:55.373Z,5.10
2018-08-17T02:59:23.044Z,5.07
2018-08-17T03:01:50.641Z,5.17
2018-08-17T03:04:18.268Z,4.67
2018-08-17T03:06:45.880Z,5.00
2018-08-17T03:09:13.618Z,6.00
2018-08-17T03:11:41.568Z,5.27
2018-08-17T03:14:09.164Z,5.93
2018-08-17T03:16:36.801Z,5.60
2018-08-17T03:19:04.628Z,5.23
2018-08-17T03:21:32.242Z,5.60
2018-08-17T03:23:59.890Z,4.90
2018-08-17T03:26:27.481Z,5.33
2018-08-17T03:28:55.124Z,4.67
2018-08-17T03:31:22.837Z,4.70
2018-08-17T03:33:50.396Z,5.10
2018-08-17T03:36:18.009Z,5.27
2018-08-17T03:38:45.648Z,5.10
2018-08-17T03:41:13.378Z,5.90
2018-08-17T03:43:41.000Z,4.90
2018-08-17T03:46:08.637Z,4.70
2018-08-17T03:48:36.227Z,5.03
2018-08-17T03:51:03.863Z,4.63
2018-08-17T03:53:31.469Z,5.60
2018-08-17T03:55:59.088Z,5.50
2018-08-17T03:58:26.797Z,5.40
2018-08-17T04:00:54.463Z,5.10
2018-08-17T04:03:22.103Z,6.37
2018-08-17T04:05:49.774Z,4.87
2018-08-17T04:08:17.425Z,5.57
2018-08-17T04:10:45.044Z,6.53
2018-08-17T04:13:12.626Z,5.40
2018-08-17T04:15:40.356Z,5.00
2018-08-17T04:18:09.044Z,5.30
2018-08-17T04:20:37.018Z,6.20
2018-08-17T04:23:04.907Z,5.70
2018-08-17T04:25:32.784Z,5.40
2018-08-17T04:28:00.501Z,5.70
2018-08-17T04:30:28.108Z,5.10
2018-08-17T04:32:55.705Z,5.70
2018-08-17T04:35:23.328Z,5.67
2018-08-17T04:37:50.930Z,5.47
2018-08-17T04:40:18.558Z,4.80
2018-08-17T04:42:46.136Z,4.60
2018-08-17T04:45:13.726Z,5.10
2018-08-17T04:47:41.369Z,5.40
2018-08-17T04:50:09.619Z,4.40
2018-08-17T04:52:37.681Z,5.40
2018-08-17T04:55:05.580Z,5.03
2018-08-17T04:57:33.214Z,5.50
2018-08-17T05:00:00.837Z,4.50
2018-08-17T05:02:28.493Z,5.57
2018-08-17T05:04:56.095Z,4.83
2018-08-17T05:07:23.686Z,5.03
2018-08-17T05:09:51.307Z,4.90
2018-08-17T05:12:18.979Z,5.50
2018-08-17T05:14:46.543Z,5.33
2018-08-17T05:17:14.132Z,4.80
2018-08-17T05:19:41.777Z,5.43
2018-08-17T05:22:09.395Z,6.00
2018-08-17T05:24:36.964Z,5.23
2018-08-17T05:27:04.716Z,5.40
2018-08-17T05:29:32.352Z,7.03
2018-08-17T05:32:00.017Z,5.77
2018-08-17T05:34:27.632Z,5.50
2018-08-17T05:36:55.201Z,5.60
2018-08-17T05:39:22.925Z,5.77
2018-08-17T05:41:50.552Z,6.70
2018-08-17T05:44:18.185Z,4.50
2018-08-17T05:46:45.808Z,3.93
2018-08-17T05:49:13.436Z,5.50
2018-08-17T05:51:41.034Z,4.83
2018-08-17T05:54:08.651Z,5.00
2018-08-17T05:56:36.289Z,5.80
2018-08-17T05:59:03.939Z,10.87
2018-08-17T06:01:31.517Z,6.20
2018-08-17T06:03:59.168Z,7.30
2018-08-17T06:06:26.780Z,6.57
2018-08-17T06:08:54.397Z,7.83
2018-08-17T06:11:22.126Z,7.10
2018-08-17T06:13:49.581Z,6.63
2018-08-17T06:16:17.322Z,5.00
2018-08-17T06:18:44.929Z,5.53
2018-08-17T06:21:12.538Z,4.93
2018-08-17T06:23:40.115Z,5.97
2018-08-17T06:26:07.751Z,5.43
2018-08-17T06:28:35.912Z,4.20
2018-08-17T06:31:03.779Z,4.33
2018-08-17T06:33:31.453Z,4.60
2018-08-17T06:35:59.114Z,4.23
2018-08-17T06:38:26.721Z,4.80
2018-08-17T06:40:54.273Z,3.97
2018-08-17T06:43:21.874Z,4.90
2018-08-17T06:45:49.545Z,4.33
2018-08-17T06:48:17.280Z,4.03
2018-08-17T06:50:44.997Z,3.60
2018-08-17T06:53:12.665Z,3.40
2018-08-17T06:55:40.290Z,3.63
2018-08-17T06:58:07.937Z,3.70
2018-08-17T07:00:35.597Z,3.23
2018-08-17T07:03:03.394Z,2.93
2018-08-17T07:05:31.044Z,3.63
2018-08-17T07:07:58.752Z,3.07
2018-08-17T07:10:26.361Z,3.70
2018-08-17T07:12:53.965Z,3.10
2018-08-17T07:15:21.685Z,3.30
2018-08-17T07:17:49.331Z,3.00
2018-08-17T07:20:20.635Z,2.90
2018-08-17T07:22:48.465Z,2.80
2018-08-17T07:25:16.227Z,2.87
2018-08-17T07:27:44.024Z,2.77
2018-08-17T07:30:11.616Z,2.57
2018-08-17T07:32:39.261Z,2.30
2018-08-17T07:35:08.608Z,2.57
2018-08-17T07:37:36.236Z,3.00
2018-08-17T07:40:04.109Z,2.97
2018-08-17T07:42:31.717Z,2.40
2018-08-17T07:44:59.327Z,3.23
2018-08-17T07:47:26.951Z,2.60
2018-08-17T07:49:54.602Z,2.90
2018-08-17T07:52:22.210Z,2.33
2018-08-17T07:54:50.011Z,2.20
2018-08-17T07:57:17.586Z,2.30
2018-08-17T07:59:45.215Z,3.07
2018-08-17T08:02:12.841Z,2.40
2018-08-17T08:04:40.457Z,2.20
2018-08-17T08:07:08.099Z,2.10
2018-08-17T08:09:35.692Z,2.10
2018-08-17T08:12:03.432Z,2.17
2018-08-17T08:14:31.098Z,2.03
2018-08-17T08:16:58.746Z,2.30
2018-08-17T08:19:26.368Z,2.10
2018-08-17T08:21:54.109Z,2.40
2018-08-17T08:24:21.708Z,1.90
2018-08-17T08:26:49.351Z,2.23
2018-08-17T08:29:17.107Z,1.97
2018-08-17T08:31:44.783Z,2.87
2018-08-17T08:34:12.734Z,2.00
2018-08-17T08:36:40.351Z,1.70
2018-08-17T08:39:09.944Z,2.10
2018-08-17T08:41:37.641Z,1.93
2018-08-17T08:44:05.759Z,2.10
2018-08-17T08:46:33.393Z,1.60
2018-08-17T08:49:01.259Z,1.77
2018-08-17T08:51:28.937Z,1.73
2018-08-17T08:53:56.658Z,1.90
2018-08-17T08:56:24.275Z,1.40
2018-08-17T08:58:52.195Z,1.43
2018-08-17T09:01:19.850Z,1.73
2018-08-17T09:03:47.578Z,1.30
2018-08-17T09:06:15.206Z,1.50
2018-08-17T09:08:43.265Z,1.10
2018-08-17T09:11:10.961Z,1.77
2018-08-17T09:13:38.608Z,1.80
2018-08-17T09:16:06.189Z,1.90
2018-08-17T09:18:33.752Z,1.60
2018-08-17T09:21:01.351Z,1.40
2018-08-17T09:23:29.049Z,1.30
2018-08-17T09:25:56.638Z,1.40
2018-08-17T09:28:24.233Z,1.60
2018-08-17T09:30:51.798Z,1.20
2018-08-17T09:33:19.475Z,1.20
2018-08-17T09:35:47.094Z,1.40
2018-08-17T09:38:14.655Z,1.30
2018-08-17T09:40:42.313Z,1.60
2018-08-17T09:43:10.020Z,1.60
2018-08-17T09:45:37.768Z,1.53
2018-08-17T09:48:05.809Z,1.40
2018-08-17T09:50:35.308Z,1.50
2018-08-17T09:53:03.281Z,1.40
2018-08-17T09:55:30.881Z,1.40
2018-08-17T09:57:58.448Z,1.32
2018-08-17T10:00:31.567Z,1.27
2018-08-17T10:03:04.939Z,1.77
2018-08-17T10:05:39.135Z,1.12
2018-08-17T10:08:12.692Z,1.57
2018-08-17T10:10:40.442Z,1.30
2018-08-17T10:13:08.042Z,1.00
2018-08-17T10:15:35.644Z,1.27
2018-08-17T10:18:03.229Z,1.57
2018-08-17T10:20:30.817Z,1.35
2018-08-17T10:22:58.454Z,7.17
2018-08-17T10:25:26.278Z,2.33
2018-08-17T10:27:56.192Z,1.17
2018-08-17T10:30:24.196Z,1.47
2018-08-17T10:32:53.493Z,1.40
2018-08-17T10:35:28.462Z,1.67
2018-08-17T10:37:59.305Z,1.50
2018-08-17T10:40:27.282Z,1.43
2018-08-17T10:42:54.949Z,1.67
2018-08-17T10:45:23.534Z,1.83
2018-08-17T10:47:51.806Z,2.00
2018-08-17T10:50:20.619Z,1.63
2018-08-17T10:52:50.331Z,2.10
2018-08-17T10:55:18.118Z,1.30
2018-08-17T10:57:45.817Z,1.90
2018-08-17T11:00:16.932Z,1.40
2018-08-17T11:02:44.929Z,3.47
2018-08-17T11:05:13.983Z,1.97
2018-08-17T11:07:41.655Z,1.47
2018-08-17T11:10:10.325Z,1.83
2018-08-17T11:12:38.992Z,1.40
2018-08-17T11:15:06.762Z,1.33
2018-08-17T11:17:34.757Z,1.80
2018-08-17T11:20:02.456Z,1.27
2018-08-17T11:22:30.063Z,1.47
2018-08-17T11:24:58.037Z,1.40
2018-08-17T11:27:25.708Z,1.50
2018-08-17T11:29:53.310Z,1.75
2018-08-17T11:32:21.116Z,1.63
2018-08-17T11:34:52.000Z,1.50
2018-08-17T11:37:20.301Z,1.32
2018-08-17T11:40:05.236Z,1.60
2018-08-17T11:42:33.886Z,1.40
2018-08-17T11:45:01.917Z,1.70
2018-08-17T11:47:29.517Z,1.77
2018-08-17T11:49:57.339Z,1.53
2018-08-17T11:52:25.409Z,1.67
2018-08-17T11:54:53.001Z,1.70
2018-08-17T11:57:20.568Z,1.90
2018-08-17T11:59:53.751Z,1.50
2018-08-17T12:02:22.357Z,9.83
2018-08-17T12:04:50.000Z,5.58
2018-08-17T12:07:17.598Z,1.92
2018-08-17T12:09:51.810Z,1.85
2018-08-17T12:12:19.398Z,2.40
2018-08-17T12:14:48.128Z,1.40
2018-08-17T12:17:16.245Z,1.92
2018-08-17T12:19:43.833Z,1.50
2018-08-17T12:22:11.570Z,2.10
2018-08-17T12:24:39.250Z,2.00
2018-08-17T12:27:06.799Z,3.00
2018-08-17T12:29:34.469Z,2.40
2018-08-17T12:32:02.154Z,2.27
2018-08-17T12:34:29.779Z,1.63
2018-08-17T12:36:57.348Z,1.83
2018-08-17T12:39:25.271Z,1.50
2018-08-17T12:41:52.970Z,2.10
2018-08-17T12:44:20.606Z,1.60
2018-08-17T12:46:48.160Z,1.70
2018-08-17T12:49:15.723Z,1.70
2018-08-17T12:51:43.324Z,1.82
2018-08-17T12:54:16.266Z,1.37
2018-08-17T12:56:44.002Z,1.40
2018-08-17T12:59:11.673Z,1.25
2018-08-17T13:01:39.247Z,1.90
2018-08-17T13:04:06.831Z,3.00
2018-08-17T13:06:34.356Z,1.53
2018-08-17T13:09:01.948Z,1.47
2018-08-17T13:11:29.504Z,1.30
2018-08-17T13:14:01.612Z,1.57
2018-08-17T13:16:29.227Z,1.20
2018-08-17T13:18:56.833Z,1.33
2018-08-17T13:21:24.436Z,1.90
2018-08-17T13:23:52.090Z,1.47
2018-08-17T13:26:19.647Z,1.53
2018-08-17T13:28:47.213Z,1.73
2018-08-17T13:31:14.781Z,1.90
2018-08-17T13:33:42.333Z,2.00
2018-08-17T13:36:09.971Z,2.63
2018-08-17T13:38:37.520Z,1.97
2018-08-17T13:41:05.115Z,1.70
2018-08-17T13:43:32.716Z,1.97
2018-08-17T13:46:02.507Z,1.70
2018-08-17T13:48:30.153Z,1.80
2018-08-17T13:50:57.722Z,1.97
2018-08-17T13:53:25.390Z,2.30
2018-08-17T13:55:52.988Z,2.40
2018-08-17T13:58:21.401Z,2.20
2018-08-17T14:00:48.976Z,1.33
2018-08-17T14:03:16.542Z,2.07
2018-08-17T14:05:44.132Z,1.63
2018-08-17T14:08:11.773Z,1.63
2018-08-17T14:10:39.360Z,1.80
2018-08-17T14:13:06.920Z,1.83
2018-08-17T14:15:34.591Z,1.80
2018-08-17T14:18:02.157Z,1.87
2018-08-17T14:20:29.802Z,1.73
2018-08-17T14:22:57.500Z,1.83
2018-08-17T14:25:25.052Z,2.00
2018-08-17T14:27:52.662Z,1.60
2018-08-17T14:30:20.210Z,2.17
2018-08-17T14:32:47.830Z,2.70
2018-08-17T14:35:15.511Z,2.30
2018-08-17T14:37:43.172Z,1.77
2018-08-17T14:40:10.854Z,2.20
2018-08-17T14:42:38.805Z,1.93
2018-08-17T14:45:07.164Z,1.90
2018-08-17T14:47:34.933Z,1.90
2018-08-17T14:50:02.615Z,2.20
2018-08-17T14:52:30.172Z,1.80
2018-08-17T14:54:57.737Z,2.67
2018-08-17T14:57:25.282Z,2.60
2018-08-17T14:59:52.896Z,2.57
2018-08-17T15:02:20.473Z,2.73
2018-08-17T15:04:48.113Z,2.70
2018-08-17T15:07:15.644Z,3.20
2018-08-17T15:09:43.208Z,2.30
2018-08-17T15:12:10.758Z,2.63
2018-08-17T15:14:38.305Z,2.67
2018-08-17T15:17:05.879Z,2.60
2018-08-17T15:19:33.472Z,2.40
2018-08-17T15:22:01.105Z,2.93
2018-08-17T15:24:28.788Z,2.63
2018-08-17T15:26:56.422Z,2.90
2018-08-17T15:29:24.070Z,2.90
2018-08-17T15:31:51.670Z,3.20
2018-08-17T15:34:19.271Z,3.33
2018-08-17T15:36:46.886Z,3.13
2018-08-17T15:39:14.528Z,2.77
2018-08-17T15:41:43.944Z,3.30
2018-08-17T15:44:17.271Z,3.30
2018-08-17T15:46:44.962Z,2.53
2018-08-17T15:49:19.676Z,3.20
2018-08-17T15:51:47.355Z,3.70
2018-08-17T15:54:14.957Z,3.07
2018-08-17T15:56:42.548Z,3.73
2018-08-17T15:59:10.154Z,3.47
2018-08-17T16:01:37.789Z,3.37
2018-08-17T16:04:05.407Z,3.20
2018-08-17T16:06:34.096Z,3.70
2018-08-17T16:09:01.799Z,3.00
2018-08-17T16:11:29.368Z,3.00
2018-08-17T16:13:57.068Z,3.37
2018-08-17T16:16:24.801Z,3.30
2018-08-17T16:18:52.416Z,3.03
2018-08-17T16:21:20.038Z,3.60
2018-08-17T16:23:47.614Z,2.60
2018-08-17T16:26:15.357Z,3.87
2018-08-17T16:28:43.013Z,2.70
2018-08-17T16:31:15.115Z,3.20
2018-08-17T16:33:42.854Z,3.50
2018-08-17T16:36:10.508Z,3.33
2018-08-17T16:38:38.886Z,3.90
2018-08-17T16:41:07.000Z,2.90
2018-08-17T16:43:42.738Z,3.73
2018-08-17T16:46:10.577Z,3.97
2018-08-17T16:48:39.145Z,3.03
2018-08-17T16:51:06.998Z,3.20
2018-08-17T16:53:34.729Z,3.57
2018-08-17T16:56:02.501Z,3.13
2018-08-17T16:58:30.243Z,3.57
2018-08-17T17:00:58.070Z,3.70
2018-08-17T17:03:25.729Z,3.20
2018-08-17T17:06:03.465Z,3.00
2018-08-17T17:08:31.952Z,3.20
2018-08-17T17:11:00.752Z,3.17
2018-08-17T17:13:28.629Z,2.83
2018-08-17T17:15:57.386Z,2.53
2018-08-17T17:18:25.045Z,3.60
2018-08-17T17:20:52.828Z,3.60
2018-08-17T17:23:20.449Z,3.40
2018-08-17T17:25:48.094Z,3.30
2018-08-17T17:28:15.762Z,3.00
2018-08-17T17:30:48.856Z,2.90
2018-08-17T17:33:16.512Z,3.50
2018-08-17T17:35:44.317Z,3.77
2018-08-17T17:38:12.473Z,2.67
2018-08-17T17:40:40.945Z,3.30
2018-08-17T17:43:08.960Z,3.00
2018-08-17T17:45:37.099Z,3.90
2018-08-17T17:48:04.973Z,2.60
2018-08-17T17:50:32.655Z,3.60
2018-08-17T17:53:01.209Z,3.20
2018-08-17T17:55:36.974Z,3.53
2018-08-17T17:58:04.787Z,3.87
2018-08-17T18:00:32.533Z,3.73
2018-08-17T18:03:00.264Z,3.20
2018-08-17T18:05:27.960Z,3.23
2018-08-17T18:08:03.625Z,3.23
2018-08-17T18:10:31.881Z,4.00
2018-08-17T18:12:59.547Z,4.53
2018-08-17T18:15:27.289Z,5.93
2018-08-17T18:17:55.067Z,5.50
2018-08-17T18:20:22.726Z,3.90
2018-08-17T18:22:50.352Z,4.30
2018-08-17T18:25:18.737Z,4.87
2018-08-17T18:27:47.551Z,5.60
2018-08-17T18:30:15.260Z,4.83
2018-08-17T18:32:42.955Z,5.40
2018-08-17T18:35:11.059Z,5.67
2018-08-17T18:37:38.824Z,4.80
2018-08-17T18:40:07.937Z,5.00
2018-08-17T18:42:35.662Z,4.73
2018-08-17T18:45:03.645Z,5.53
2018-08-17T18:47:31.435Z,5.77
2018-08-17T18:49:59.065Z,5.47
2018-08-17T18:52:26.909Z,4.70
2018-08-17T18:54:54.614Z,5.40
2018-08-17T18:57:22.393Z,4.90
2018-08-17T18:59:50.219Z,5.60
2018-08-17T19:02:18.058Z,4.80
2018-08-17T19:04:45.791Z,5.50
2018-08-17T19:07:13.510Z,4.97
2018-08-17T19:09:41.348Z,5.30
2018-08-17T19:12:09.193Z,5.80
2018-08-17T19:14:42.865Z,6.20
2018-08-17T19:17:15.048Z,6.20
2018-08-17T19:19:42.821Z,5.70
2018-08-17T19:22:10.552Z,6.30
2018-08-17T19:24:38.185Z,6.00
2018-08-17T19:27:06.121Z,5.87
2018-08-17T19:29:33.935Z,6.07
2018-08-17T19:32:01.641Z,7.17
2018-08-17T19:34:30.622Z,5.50
2018-08-17T19:36:58.273Z,6.37
2018-08-17T19:39:33.824Z,6.40
2018-08-17T19:42:01.994Z,6.93
2018-08-17T19:44:30.088Z,9.97
2018-08-17T19:46:57.828Z,9.30
2018-08-17T19:49:25.634Z,6.37
2018-08-17T19:51:53.273Z,5.23
2018-08-17T19:54:21.055Z,7.17
2018-08-17T19:56:48.740Z,6.00
2018-08-17T19:59:16.430Z,6.87
2018-08-17T20:01:44.322Z,6.80
2018-08-17T20:04:12.008Z,6.17
2018-08-17T20:06:39.729Z,6.20
2018-08-17T20:09:08.724Z,6.80
2018-08-17T20:11:36.546Z,6.67
2018-08-17T20:14:04.538Z,5.77
2018-08-17T20:16:32.251Z,6.03
2018-08-17T20:19:00.961Z,7.47
2018-08-17T20:21:28.677Z,7.70
2018-08-17T20:23:56.325Z,6.77
2018-08-17T20:26:25.194Z,6.23
2018-08-17T20:28:52.583Z,5.30
2018-08-17T20:31:20.267Z,5.83
2018-08-17T20:33:47.857Z,7.90
2018-08-17T20:36:22.276Z,7.10
2018-08-17T20:38:50.126Z,5.90
2018-08-17T20:41:18.302Z,7.13
2018-08-17T20:43:46.246Z,6.00
2018-08-17T20:46:13.890Z,6.80
2018-08-17T20:48:46.082Z,7.30
2018-08-17T20:51:18.255Z,7.50
2018-08-17T20:53:46.695Z,7.03
2018-08-17T20:56:14.580Z,8.00
2018-08-17T20:58:42.234Z,8.00
2018-08-17T21:01:09.911Z,7.83
2018-08-17T21:03:37.545Z,7.80
2018-08-17T21:06:05.185Z,8.20
2018-08-17T21:08:32.962Z,7.40
2018-08-17T21:11:00.567Z,7.43
2018-08-17T21:13:28.225Z,7.17
2018-08-17T21:15:55.988Z,7.40
2018-08-17T21:18:23.678Z,7.27
2018-08-17T21:20:51.273Z,7.20
2018-08-17T21:23:18.877Z,6.93
2018-08-17T21:25:46.531Z,8.37
2018-08-17T21:28:14.366Z,9.73
2018-08-17T21:30:42.016Z,8.70
2018-08-17T21:33:09.654Z,6.93
2018-08-17T21:35:37.262Z,7.60
2018-08-17T21:38:05.036Z,7.97
2018-08-17T21:40:33.358Z,7.83
2018-08-17T21:43:01.913Z,9.50
2018-08-17T21:45:29.823Z,8.17
2018-08-17T21:47:57.543Z,9.63
2018-08-17T21:50:25.143Z,9.50
2018-08-17T21:52:52.796Z,7.90
2018-08-17T21:55:20.441Z,8.27
2018-08-17T21:57:48.072Z,8.87
2018-08-17T22:00:30.912Z,7.87
2018-08-17T22:02:58.824Z,6.90
2018-08-17T22:05:29.493Z,8.60
2018-08-17T22:07:57.448Z,8.67
2018-08-17T22:10:25.109Z,8.70
2018-08-17T22:12:52.755Z,8.67
2018-08-17T22:15:20.345Z,8.03
2018-08-17T22:17:48.072Z,9.47
2018-08-17T22:20:15.644Z,9.80
2018-08-17T22:22:43.289Z,9.00
2018-08-17T22:25:11.610Z,8.20
2018-08-17T22:27:39.371Z,8.50
2018-08-17T22:30:19.823Z,8.63
2018-08-17T22:32:47.421Z,9.83
2018-08-17T22:35:15.188Z,10.17
2018-08-17T22:37:42.932Z,9.20
2018-08-17T22:40:10.571Z,9.37
2018-08-17T22:42:38.172Z,9.83
2018-08-17T22:45:06.224Z,9.50
2018-08-17T22:47:33.878Z,9.27
2018-08-17T22:50:01.516Z,10.10
2018-08-17T22:52:33.404Z,8.50
2018-08-17T22:55:02.275Z,9.60
2018-08-17T22:57:30.709Z,9.90
2018-08-17T23:00:12.079Z,8.93
2018-08-17T23:02:40.858Z,9.07
2018-08-17T23:05:10.265Z,9.10
2018-08-17T23:07:37.974Z,8.60
2018-08-17T23:10:07.512Z,8.80
2018-08-17T23:12:35.105Z,9.80
2018-08-17T23:15:02.848Z,8.60
2018-08-17T23:17:40.219Z,8.23
2018-08-17T23:20:08.362Z,8.93
2018-08-17T23:22:52.944Z,9.10
2018-08-17T23:25:20.606Z,9.53
2018-08-17T23:27:48.995Z,9.13
2018-08-17T23:30:16.626Z,10.57
2018-08-17T23:32:44.853Z,10.00
2018-08-17T23:35:12.535Z,8.90
2018-08-17T23:37:40.195Z,9.23
2018-08-17T23:40:08.714Z,8.83
2018-08-17T23:42:36.502Z,9.47
2018-08-17T23:45:05.485Z,8.93
2018-08-17T23:47:33.674Z,8.93
2018-08-17T23:50:01.476Z,8.77
2018-08-17T23:52:29.159Z,8.10
2018-08-17T23:54:56.966Z,7.37
2018-08-17T23:57:24.688Z,10.40
2018-08-17T23:59:52.500Z,9.57
